Time;durP1;ratioP1;P1;durP2;ratioP2;P2;SDS_P1;SDS_P2;PMS_P1;PMS_P2;Temp;Humidity;BMP_temperature;BMP_pressure;BME280_temperature;BME280_humidity;BME280_pressure;Samples;Min_cycle;Max_cycle;Signal;HPM_P1;HPM_P2
2023/01/25 00:01:57;;;;;;;203.48;37.65;;;;;;;;;;7396907;19;20623;-76
2023/01/25 00:04:22;;;;;;;114.22;31.83;;;;;;;;;;7395799;19;20012;-76
2023/01/25 00:06:48;;;;;;;169.18;34.15;;;;;;;;;;7382925;19;20052;-75
2023/01/25 00:09:14;;;;;;;121.03;31.60;;;;;;;;;;7369336;19;20487;-76
2023/01/25 00:11:39;;;;;;;165.07;32.05;;;;;;;;;;7368096;19;20023;-76
2023/01/25 00:14:04;;;;;;;214.40;34.13;;;;;;;;;;7362023;19;20006;-75
2023/01/25 00:16:30;;;;;;;108.22;32.15;;;;;;;;;;7362328;19;20011;-77
2023/01/25 00:18:55;;;;;;;85.55;30.63;;;;;;;;;;7366909;19;20487;-76
2023/01/25 00:21:22;;;;;;;125.35;34.47;;;;;;;;;;7370781;19;20010;-74
2023/01/25 00:23:47;;;;;;;95.47;29.70;;;;;;;;;;7365564;19;20014;-75
2023/01/25 00:26:13;;;;;;;113.78;30.92;;;;;;;;;;7368980;19;20009;-75
2023/01/25 00:28:38;;;;;;;67.10;27.17;;;;;;;;;;7361121;19;20416;-77
2023/01/25 00:31:04;;;;;;;73.88;28.17;;;;;;;;;;7362694;19;20487;-75
2023/01/25 00:33:32;;;;;;;106.03;29.70;;;;;;;;;;7368407;19;20079;-77
2023/01/25 00:35:59;;;;;;;162.77;36.03;;;;;;;;;;7368252;19;20100;-75
2023/01/25 00:38:33;;;;;;;112.10;31.75;;;;;;;;;;7369254;19;20451;-76
2023/01/25 00:40:58;;;;;;;76.72;28.08;;;;;;;;;;7366821;19;20071;-77
2023/01/25 00:43:24;;;;;;;102.43;28.23;;;;;;;;;;7371035;19;20389;-75
2023/01/25 00:45:49;;;;;;;92.72;27.40;;;;;;;;;;7364586;19;20006;-76
2023/01/25 00:48:14;;;;;;;141.77;27.90;;;;;;;;;;7369237;19;20007;-75
2023/01/25 00:50:39;;;;;;;151.48;31.45;;;;;;;;;;7365155;19;20019;-74
2023/01/25 00:53:05;;;;;;;120.10;32.33;;;;;;;;;;7362706;19;20521;-75
2023/01/25 00:55:30;;;;;;;92.43;29.50;;;;;;;;;;7365846;19;20351;-76
2023/01/25 00:57:55;;;;;;;80.40;30.20;;;;;;;;;;7368512;19;20025;-76
2023/01/25 01:00:20;;;;;;;193.50;37.40;;;;;;;;;;7366059;19;20110;-75
2023/01/25 01:02:45;;;;;;;87.35;29.58;;;;;;;;;;7361764;19;20039;-77
2023/01/25 01:05:11;;;;;;;150.60;32.30;;;;;;;;;;7365995;19;20106;-77
2023/01/25 01:07:36;;;;;;;131.35;30.67;;;;;;;;;;7364907;19;19998;-75
2023/01/25 01:10:01;;;;;;;99.88;27.92;;;;;;;;;;7369979;19;20470;-76
2023/01/25 01:12:26;;;;;;;105.50;30.45;;;;;;;;;;7364326;19;20037;-76
2023/01/25 01:14:52;;;;;;;73.75;25.98;;;;;;;;;;7341882;19;19999;-76
2023/01/25 01:17:17;;;;;;;72.85;26.58;;;;;;;;;;7368967;19;20323;-76
2023/01/25 01:19:42;;;;;;;83.90;25.13;;;;;;;;;;7365058;19;20057;-75
2023/01/25 01:22:07;;;;;;;84.63;26.88;;;;;;;;;;7368883;19;20540;-77
2023/01/25 01:24:32;;;;;;;96.50;27.67;;;;;;;;;;7361176;19;20019;-77
2023/01/25 01:26:58;;;;;;;51.90;23.90;;;;;;;;;;7370344;19;20006;-76
2023/01/25 01:29:23;;;;;;;52.58;23.95;;;;;;;;;;7362280;19;20085;-76
2023/01/25 01:31:50;;;;;;;61.65;23.70;;;;;;;;;;7363974;19;20020;-75
2023/01/25 01:34:15;;;;;;;53.67;22.38;;;;;;;;;;7367988;19;20041;-75
2023/01/25 01:36:40;;;;;;;62.67;24.48;;;;;;;;;;7367234;19;20007;-75
2023/01/25 01:39:05;;;;;;;61.28;23.40;;;;;;;;;;7369810;19;20435;-76
2023/01/25 01:41:30;;;;;;;77.28;25.00;;;;;;;;;;7365527;19;20419;-76
2023/01/25 01:43:56;;;;;;;56.80;23.25;;;;;;;;;;7358934;19;20015;-76
2023/01/25 01:46:27;;;;;;;59.65;25.42;;;;;;;;;;7369647;19;20074;-75
2023/01/25 01:48:54;;;;;;;81.78;24.67;;;;;;;;;;7364636;19;20474;-75
2023/01/25 01:51:23;;;;;;;67.63;23.92;;;;;;;;;;7366281;19;20574;-76
2023/01/25 01:54:11;;;;;;;87.38;25.17;;;;;;;;;;7363639;19;20114;-77
2023/01/25 01:56:40;;;;;;;85.65;24.90;;;;;;;;;;7362836;19;20162;-75
2023/01/25 01:59:05;;;;;;;51.05;22.73;;;;;;;;;;7360915;19;20014;-75
2023/01/25 02:01:31;;;;;;;67.28;23.33;;;;;;;;;;7365653;19;20876;-76
2023/01/25 02:03:57;;;;;;;101.25;20.92;;;;;;;;;;7363642;19;20016;-77
2023/01/25 02:06:28;;;;;;;64.10;23.13;;;;;;;;;;7367327;19;19998;-76
2023/01/25 02:08:54;;;;;;;78.55;22.40;;;;;;;;;;7362684;19;20462;-75
2023/01/25 02:11:20;;;;;;;51.40;21.23;;;;;;;;;;7367956;19;20018;-75
2023/01/25 02:13:46;;;;;;;61.45;24.73;;;;;;;;;;7322159;19;20265;-76
2023/01/25 02:16:15;;;;;;;60.45;21.73;;;;;;;;;;7271863;19;20912;-78
2023/01/25 02:18:40;;;;;;;55.30;21.50;;;;;;;;;;7270489;19;20762;-76
2023/01/25 02:21:05;;;;;;;48.30;21.67;;;;;;;;;;7279890;19;20376;-75
2023/01/25 02:23:37;;;;;;;41.42;20.08;;;;;;;;;;7273240;19;20773;-77
2023/01/25 02:26:03;;;;;;;51.78;23.17;;;;;;;;;;7279300;19;20462;-79
2023/01/25 02:28:35;;;;;;;47.10;20.90;;;;;;;;;;7269526;19;20586;-79
2023/01/25 02:31:00;;;;;;;58.55;21.23;;;;;;;;;;7269917;19;20002;-78
2023/01/25 02:33:26;;;;;;;50.08;20.58;;;;;;;;;;7274375;19;20503;-77
2023/01/25 02:36:12;;;;;;;60.95;20.50;;;;;;;;;;7279169;19;20016;-75
2023/01/25 02:38:41;;;;;;;88.65;21.95;;;;;;;;;;7273143;19;20780;-78
2023/01/25 02:41:11;;;;;;;63.05;22.30;;;;;;;;;;7280286;19;20604;-77
2023/01/25 02:43:37;;;;;;;58.28;21.45;;;;;;;;;;7278312;19;20098;-77
2023/01/25 02:46:09;;;;;;;54.90;22.27;;;;;;;;;;7280087;19;20081;-77
2023/01/25 02:48:34;;;;;;;69.90;24.88;;;;;;;;;;7283500;19;19998;-77
2023/01/25 02:51:00;;;;;;;67.85;21.55;;;;;;;;;;7285425;19;20449;-78
2023/01/25 02:53:26;;;;;;;84.28;23.08;;;;;;;;;;7286557;19;20340;-77
2023/01/25 02:55:51;;;;;;;44.88;20.50;;;;;;;;;;7287706;19;20550;-76
2023/01/25 02:58:16;;;;;;;48.83;19.67;;;;;;;;;;7285419;19;20249;-75
2023/01/25 03:00:42;;;;;;;52.47;20.00;;;;;;;;;;7283986;19;20564;-77
2023/01/25 03:03:07;;;;;;;64.28;20.40;;;;;;;;;;7289752;19;20018;-76
2023/01/25 03:05:32;;;;;;;50.35;18.65;;;;;;;;;;7293635;19;20075;-78
2023/01/25 03:07:57;;;;;;;47.60;19.08;;;;;;;;;;7286365;19;20519;-79
2023/01/25 03:10:23;;;;;;;55.92;20.65;;;;;;;;;;7284714;19;20238;-77
2023/01/25 03:12:48;;;;;;;40.03;20.38;;;;;;;;;;7285492;19;20014;-78
2023/01/25 03:15:13;;;;;;;50.38;20.58;;;;;;;;;;7357824;19;20102;-75
2023/01/25 03:17:38;;;;;;;51.83;20.23;;;;;;;;;;7366986;19;20038;-76
2023/01/25 03:20:05;;;;;;;51.28;21.42;;;;;;;;;;7367038;19;20011;-75
2023/01/25 03:22:30;;;;;;;88.53;21.95;;;;;;;;;;7363501;19;20017;-75
2023/01/25 03:24:56;;;;;;;51.05;20.45;;;;;;;;;;7364994;19;20014;-75
2023/01/25 03:27:21;;;;;;;67.70;20.20;;;;;;;;;;7369103;19;20035;-75
2023/01/25 03:29:46;;;;;;;50.05;19.17;;;;;;;;;;7364219;19;20019;-75
2023/01/25 03:32:11;;;;;;;62.22;20.52;;;;;;;;;;7368663;19;20021;-76
2023/01/25 03:34:36;;;;;;;67.72;20.70;;;;;;;;;;7363238;19;20094;-75
2023/01/25 03:37:02;;;;;;;72.80;20.30;;;;;;;;;;7366131;19;20152;-75
2023/01/25 03:39:27;;;;;;;80.38;21.95;;;;;;;;;;7368743;19;20018;-75
2023/01/25 03:41:52;;;;;;;63.72;20.60;;;;;;;;;;7369021;19;20297;-76
2023/01/25 03:44:18;;;;;;;45.92;20.35;;;;;;;;;;7364949;19;20010;-75
2023/01/25 03:46:43;;;;;;;82.75;21.40;;;;;;;;;;7371447;19;20005;-77
2023/01/25 03:49:08;;;;;;;51.25;19.63;;;;;;;;;;7374519;19;20150;-75
2023/01/25 03:51:33;;;;;;;68.28;18.75;;;;;;;;;;7373514;19;20027;-75
2023/01/25 03:53:59;;;;;;;122.10;22.05;;;;;;;;;;7366180;19;20368;-75
2023/01/25 03:56:24;;;;;;;59.50;19.70;;;;;;;;;;7372501;19;20382;-75
2023/01/25 03:58:49;;;;;;;62.60;20.33;;;;;;;;;;7369522;19;20116;-77
2023/01/25 04:01:14;;;;;;;48.17;19.45;;;;;;;;;;7372636;19;20011;-75
2023/01/25 04:03:39;;;;;;;78.43;22.05;;;;;;;;;;7370628;19;20499;-76
2023/01/25 04:06:05;;;;;;;49.14;18.46;;;;;;;;;;7371856;19;20069;-75
2023/01/25 04:08:30;;;;;;;70.60;19.85;;;;;;;;;;7366789;19;20078;-76
2023/01/25 04:10:59;;;;;;;64.88;18.13;;;;;;;;;;7370109;19;20091;-75
2023/01/25 04:13:24;;;;;;;48.15;19.45;;;;;;;;;;7358677;19;20018;-76
2023/01/25 04:15:49;;;;;;;48.08;18.55;;;;;;;;;;7360669;19;20428;-76
2023/01/25 04:18:15;;;;;;;54.40;19.30;;;;;;;;;;7373058;19;20054;-75
2023/01/25 04:20:41;;;;;;;48.72;20.58;;;;;;;;;;7363963;19;20035;-75
2023/01/25 04:23:06;;;;;;;50.55;19.58;;;;;;;;;;7369964;19;20014;-76
2023/01/25 04:25:32;;;;;;;41.55;18.60;;;;;;;;;;7372125;19;20082;-76
2023/01/25 04:27:57;;;;;;;63.40;19.50;;;;;;;;;;7365953;19;20081;-76
2023/01/25 04:30:22;;;;;;;68.80;20.25;;;;;;;;;;7371773;19;20014;-77
2023/01/25 04:32:47;;;;;;;62.88;21.10;;;;;;;;;;7365842;19;20428;-75
2023/01/25 04:35:14;;;;;;;39.15;17.77;;;;;;;;;;7372543;19;20136;-75
2023/01/25 04:37:39;;;;;;;45.78;18.38;;;;;;;;;;7370378;19;20034;-74
2023/01/25 04:40:04;;;;;;;87.97;20.17;;;;;;;;;;7366325;19;20018;-76
2023/01/25 04:42:30;;;;;;;82.80;18.42;;;;;;;;;;7368031;19;20034;-76
2023/01/25 04:44:55;;;;;;;75.65;19.23;;;;;;;;;;7359142;19;20300;-76
2023/01/25 04:47:20;;;;;;;59.67;18.27;;;;;;;;;;7372664;19;20259;-75
2023/01/25 04:49:45;;;;;;;51.42;17.52;;;;;;;;;;7368436;19;20114;-77
2023/01/25 04:52:10;;;;;;;45.38;16.65;;;;;;;;;;7361459;19;20015;-76
2023/01/25 04:54:35;;;;;;;54.20;19.08;;;;;;;;;;7373399;19;20129;-76
2023/01/25 04:57:01;;;;;;;37.35;17.42;;;;;;;;;;7365462;19;20048;-76
2023/01/25 04:59:26;;;;;;;38.75;16.65;;;;;;;;;;7367180;19;20010;-75
2023/01/25 05:01:51;;;;;;;55.22;17.13;;;;;;;;;;7361716;19;20006;-75
2023/01/25 05:04:16;;;;;;;91.57;18.13;;;;;;;;;;7371420;19;20086;-76
2023/01/25 05:06:42;;;;;;;54.58;18.75;;;;;;;;;;7367721;19;19991;-78
2023/01/25 05:09:08;;;;;;;45.30;17.75;;;;;;;;;;7361753;19;20309;-77
2023/01/25 05:11:33;;;;;;;34.25;16.27;;;;;;;;;;7363110;19;20025;-76
2023/01/25 05:13:58;;;;;;;37.22;16.50;;;;;;;;;;7364522;19;20013;-76
2023/01/25 05:16:24;;;;;;;40.05;16.05;;;;;;;;;;7360675;19;20187;-75
2023/01/25 05:18:49;;;;;;;53.42;17.55;;;;;;;;;;7367430;19;20455;-77
2023/01/25 05:23:58;;;;;;;54.97;18.05;;;;;;;;;;7365588;19;20278;-78
2023/01/25 05:29:08;;;;;;;35.47;18.50;;;;;;;;;;7360974;19;20002;-76
2023/01/25 05:31:33;;;;;;;61.05;18.52;;;;;;;;;;7354660;19;20018;-75
2023/01/25 05:33:58;;;;;;;52.10;18.35;;;;;;;;;;7357167;19;20006;-77
2023/01/25 05:36:23;;;;;;;60.42;18.15;;;;;;;;;;7364965;19;20005;-77
2023/01/25 05:38:48;;;;;;;53.20;17.02;;;;;;;;;;7365391;19;20014;-75
2023/01/25 05:41:14;;;;;;;54.33;17.40;;;;;;;;;;7363745;19;20114;-77
2023/01/25 05:43:39;;;;;;;70.22;19.88;;;;;;;;;;7362779;19;20331;-75
2023/01/25 05:46:04;;;;;;;80.90;19.00;;;;;;;;;;7364231;19;20015;-76
2023/01/25 05:48:30;;;;;;;122.32;21.33;;;;;;;;;;7369073;19;20018;-75
2023/01/25 05:50:58;;;;;;;123.25;20.95;;;;;;;;;;7368033;19;20570;-75
2023/01/25 05:53:24;;;;;;;73.97;19.73;;;;;;;;;;7369175;19;20022;-75
2023/01/25 05:55:49;;;;;;;95.35;21.52;;;;;;;;;;7368297;19;20030;-77
2023/01/25 05:58:14;;;;;;;101.07;22.67;;;;;;;;;;7366683;19;20010;-76
2023/01/25 06:00:39;;;;;;;63.00;22.20;;;;;;;;;;7366871;19;20347;-77
2023/01/25 06:03:05;;;;;;;67.15;21.30;;;;;;;;;;7363326;19;20767;-75
2023/01/25 06:05:30;;;;;;;161.75;23.05;;;;;;;;;;7368267;19;20013;-76
2023/01/25 06:07:56;;;;;;;97.32;21.70;;;;;;;;;;7367757;19;20471;-78
2023/01/25 06:10:21;;;;;;;125.57;18.48;;;;;;;;;;7369255;19;20018;-76
2023/01/25 06:12:46;;;;;;;112.57;21.40;;;;;;;;;;7356961;19;20312;-76
2023/01/25 06:15:12;;;;;;;84.55;21.13;;;;;;;;;;7361784;19;20267;-79
2023/01/25 06:17:37;;;;;;;80.74;20.42;;;;;;;;;;7363130;19;19998;-76
2023/01/25 06:20:02;;;;;;;54.50;18.83;;;;;;;;;;7362341;19;20136;-75
2023/01/25 06:22:27;;;;;;;44.83;17.15;;;;;;;;;;7371643;19;20107;-76
2023/01/25 06:24:52;;;;;;;82.55;20.13;;;;;;;;;;7361410;19;20006;-76
2023/01/25 06:27:18;;;;;;;57.28;19.55;;;;;;;;;;7367845;19;20010;-77
2023/01/25 06:29:43;;;;;;;46.10;18.52;;;;;;;;;;7362852;19;20014;-76
2023/01/25 06:32:08;;;;;;;39.90;16.60;;;;;;;;;;7358938;19;20034;-77
2023/01/25 06:34:33;;;;;;;42.15;19.05;;;;;;;;;;7366164;19;19987;-77
2023/01/25 06:36:58;;;;;;;62.33;18.95;;;;;;;;;;7360771;19;20311;-78
2023/01/25 06:39:24;;;;;;;85.38;19.52;;;;;;;;;;7352934;19;20024;-79
2023/01/25 06:41:49;;;;;;;71.10;18.15;;;;;;;;;;7362477;19;20077;-78
2023/01/25 06:44:14;;;;;;;61.40;19.15;;;;;;;;;;7359584;19;20025;-76
2023/01/25 06:46:39;;;;;;;48.75;18.08;;;;;;;;;;7367002;19;20018;-77
2023/01/25 06:49:04;;;;;;;125.97;20.80;;;;;;;;;;7364008;19;20459;-76
2023/01/25 06:51:30;;;;;;;83.13;18.38;;;;;;;;;;7367523;19;20220;-76
2023/01/25 06:53:55;;;;;;;89.80;16.92;;;;;;;;;;7366986;19;20486;-78
2023/01/25 06:56:21;;;;;;;87.32;17.48;;;;;;;;;;7367845;19;20019;-76
2023/01/25 06:58:47;;;;;;;78.32;15.85;;;;;;;;;;7368274;19;20114;-76
2023/01/25 07:01:14;;;;;;;67.18;15.57;;;;;;;;;;7367961;19;20130;-76
2023/01/25 07:03:40;;;;;;;29.50;13.77;;;;;;;;;;7371570;19;20014;-75
2023/01/25 07:06:06;;;;;;;91.47;17.83;;;;;;;;;;7367905;19;20035;-76
2023/01/25 07:08:32;;;;;;;41.25;15.93;;;;;;;;;;7372733;19;20010;-76
2023/01/25 07:10:59;;;;;;;39.97;16.27;;;;;;;;;;7366924;19;20504;-78
2023/01/25 07:13:24;;;;;;;61.90;15.85;;;;;;;;;;7367267;19;20014;-76
2023/01/25 07:15:56;;;;;;;74.93;17.95;;;;;;;;;;7362510;19;20009;-76
2023/01/25 07:18:22;;;;;;;40.80;17.05;;;;;;;;;;7364657;19;20006;-76
2023/01/25 07:20:47;;;;;;;81.47;17.38;;;;;;;;;;7366016;19;20113;-75
2023/01/25 07:23:13;;;;;;;105.53;17.67;;;;;;;;;;7366650;19;20010;-81
2023/01/25 07:25:42;;;;;;;46.78;14.95;;;;;;;;;;7357590;19;20047;-76
2023/01/25 07:28:07;;;;;;;56.30;15.32;;;;;;;;;;7369072;19;20006;-79
2023/01/25 07:30:33;;;;;;;37.67;13.82;;;;;;;;;;7367117;19;20433;-78
2023/01/25 07:32:58;;;;;;;47.65;14.32;;;;;;;;;;7372707;19;20107;-78
2023/01/25 07:35:23;;;;;;;31.63;13.40;;;;;;;;;;7376317;19;20014;-78
2023/01/25 07:37:49;;;;;;;33.65;13.38;;;;;;;;;;7374123;19;20034;-79
2023/01/25 07:40:14;;;;;;;91.05;15.48;;;;;;;;;;7376297;19;20033;-77
2023/01/25 07:42:41;;;;;;;56.95;15.00;;;;;;;;;;7374999;19;20352;-78
2023/01/25 07:45:06;;;;;;;92.47;15.98;;;;;;;;;;7362431;19;20497;-77
2023/01/25 07:47:31;;;;;;;37.97;12.10;;;;;;;;;;7377116;19;20565;-77
2023/01/25 07:49:56;;;;;;;40.80;13.20;;;;;;;;;;7374173;19;20029;-78
2023/01/25 07:52:22;;;;;;;34.58;15.05;;;;;;;;;;7371463;19;20300;-78
2023/01/25 07:54:48;;;;;;;35.22;13.68;;;;;;;;;;7377172;19;20284;-78
2023/01/25 07:57:14;;;;;;;34.78;13.20;;;;;;;;;;7374310;19;20021;-78
2023/01/25 07:59:39;;;;;;;30.13;13.05;;;;;;;;;;7372351;19;20019;-78
2023/01/25 08:02:04;;;;;;;52.80;14.55;;;;;;;;;;7373529;19;20015;-78
2023/01/25 08:04:29;;;;;;;24.67;12.63;;;;;;;;;;7375833;19;20382;-77
2023/01/25 08:06:55;;;;;;;38.30;14.15;;;;;;;;;;7376342;19;20641;-78
2023/01/25 08:09:20;;;;;;;39.00;15.02;;;;;;;;;;7372808;19;20014;-78
2023/01/25 08:11:48;;;;;;;41.22;13.95;;;;;;;;;;7377213;19;20024;-78
2023/01/25 08:14:13;;;;;;;34.15;14.02;;;;;;;;;;7369591;19;20034;-78
2023/01/25 08:16:38;;;;;;;25.10;13.38;;;;;;;;;;7358880;19;19999;-78
2023/01/25 08:19:03;;;;;;;36.42;15.13;;;;;;;;;;7370056;19;20202;-79
2023/01/25 08:21:30;;;;;;;30.48;13.70;;;;;;;;;;7377981;19;19987;-78
2023/01/25 08:23:56;;;;;;;40.15;12.25;;;;;;;;;;7374711;19;20030;-78
2023/01/25 08:26:21;;;;;;;30.10;12.85;;;;;;;;;;7373790;19;20688;-78
2023/01/25 08:28:46;;;;;;;50.47;13.43;;;;;;;;;;7373200;19;20109;-79
2023/01/25 08:31:11;;;;;;;22.70;12.55;;;;;;;;;;7374116;19;20030;-77
2023/01/25 08:33:37;;;;;;;27.35;13.45;;;;;;;;;;7376857;19;20462;-78
2023/01/25 08:36:03;;;;;;;26.55;12.68;;;;;;;;;;7371204;19;20003;-78
2023/01/25 08:38:28;;;;;;;31.52;13.48;;;;;;;;;;7374069;19;20366;-78
2023/01/25 08:40:53;;;;;;;35.88;12.05;;;;;;;;;;7375804;19;20365;-77
2023/01/25 08:43:18;;;;;;;25.38;12.75;;;;;;;;;;7366105;19;20353;-79
2023/01/25 08:45:44;;;;;;;39.08;15.13;;;;;;;;;;7374688;19;19995;-78
2023/01/25 08:48:11;;;;;;;32.05;13.23;;;;;;;;;;7372198;19;20570;-78
2023/01/25 08:50:37;;;;;;;26.25;13.95;;;;;;;;;;7375788;19;20018;-78
2023/01/25 08:53:02;;;;;;;22.80;12.70;;;;;;;;;;7373559;19;20022;-78
2023/01/25 08:55:27;;;;;;;25.00;12.77;;;;;;;;;;7374332;19;20046;-78
2023/01/25 08:57:52;;;;;;;24.15;12.38;;;;;;;;;;7375531;19;19999;-77
2023/01/25 09:00:18;;;;;;;25.02;12.95;;;;;;;;;;7370348;19;20243;-77
2023/01/25 09:02:43;;;;;;;51.00;13.52;;;;;;;;;;7373253;19;20038;-78
2023/01/25 09:05:09;;;;;;;32.53;13.05;;;;;;;;;;7374961;19;20007;-77
2023/01/25 09:07:37;;;;;;;37.35;13.18;;;;;;;;;;7372580;19;20087;-77
2023/01/25 09:10:03;;;;;;;38.63;13.60;;;;;;;;;;7372913;19;20047;-77
2023/01/25 09:12:29;;;;;;;39.55;14.00;;;;;;;;;;7372145;19;20335;-78
2023/01/25 09:14:54;;;;;;;34.67;15.82;;;;;;;;;;7370334;19;20057;-78
2023/01/25 09:17:19;;;;;;;32.80;15.73;;;;;;;;;;7371049;19;20016;-77
2023/01/25 09:19:46;;;;;;;28.48;14.98;;;;;;;;;;7373418;19;20031;-77
2023/01/25 09:22:11;;;;;;;28.77;14.38;;;;;;;;;;7370315;19;20010;-77
2023/01/25 09:24:36;;;;;;;30.33;15.82;;;;;;;;;;7372104;19;20014;-77
2023/01/25 09:27:01;;;;;;;27.40;14.90;;;;;;;;;;7370798;19;20439;-79
2023/01/25 09:29:27;;;;;;;28.30;13.82;;;;;;;;;;7363462;19;20510;-79
2023/01/25 09:31:52;;;;;;;28.70;13.93;;;;;;;;;;7367441;19;20006;-78
2023/01/25 09:34:17;;;;;;;29.10;14.07;;;;;;;;;;7369950;19;20040;-77
2023/01/25 09:36:42;;;;;;;24.65;13.27;;;;;;;;;;7375217;19;20009;-78
2023/01/25 09:39:09;;;;;;;28.52;12.93;;;;;;;;;;7368862;19;20006;-78
2023/01/25 09:41:43;;;;;;;26.20;13.35;;;;;;;;;;7372588;19;20010;-78
2023/01/25 09:44:15;;;;;;;30.30;14.20;;;;;;;;;;7369704;19;20328;-80
2023/01/25 09:46:47;;;;;;;25.60;14.90;;;;;;;;;;7375515;19;20018;-78
2023/01/25 09:49:18;;;;;;;32.35;16.05;;;;;;;;;;7371116;19;20334;-78
2023/01/25 09:51:51;;;;;;;30.00;14.40;;;;;;;;;;7368360;19;20455;-77
2023/01/25 09:54:17;;;;;;;36.42;16.80;;;;;;;;;;7369756;19;20646;-78
2023/01/25 09:56:42;;;;;;;32.97;15.10;;;;;;;;;;7371636;19;20026;-78
2023/01/25 09:59:11;;;;;;;28.77;13.52;;;;;;;;;;7368690;19;20011;-78
2023/01/25 10:01:42;;;;;;;24.42;12.20;;;;;;;;;;7372685;19;20010;-77
2023/01/25 10:04:15;;;;;;;24.00;12.63;;;;;;;;;;7370062;19;20458;-77
2023/01/25 10:06:44;;;;;;;23.92;12.38;;;;;;;;;;7370461;19;20003;-78
2023/01/25 10:09:29;;;;;;;24.17;11.73;;;;;;;;;;7353045;19;20011;-78
2023/01/25 10:11:55;;;;;;;23.38;10.98;;;;;;;;;;7367971;19;20014;-77
2023/01/25 10:14:21;;;;;;;39.65;11.50;;;;;;;;;;7361363;19;20014;-77
2023/01/25 10:16:49;;;;;;;24.00;11.98;;;;;;;;;;7372167;19;20017;-78
2023/01/25 10:19:30;;;;;;;27.40;11.90;;;;;;;;;;7366822;19;20114;-77
2023/01/25 10:21:59;;;;;;;31.42;12.60;;;;;;;;;;7369573;19;20025;-78
2023/01/25 10:24:24;;;;;;;22.42;12.10;;;;;;;;;;7368470;19;20146;-77
2023/01/25 10:26:57;;;;;;;21.47;10.20;;;;;;;;;;7372524;19;20137;-77
2023/01/25 10:29:33;;;;;;;26.55;10.25;;;;;;;;;;7360119;19;20859;-79
2023/01/25 10:32:07;;;;;;;36.13;11.25;;;;;;;;;;7371592;19;20031;-77
2023/01/25 10:34:36;;;;;;;18.80;10.50;;;;;;;;;;7368680;19;20098;-77
2023/01/25 10:37:15;;;;;;;27.70;10.80;;;;;;;;;;7368188;19;20098;-77
2023/01/25 10:39:53;;;;;;;25.33;11.30;;;;;;;;;;7365844;19;20014;-78
2023/01/25 10:42:19;;;;;;;26.70;12.38;;;;;;;;;;7369226;19;20390;-77
2023/01/25 10:44:44;;;;;;;27.20;12.68;;;;;;;;;;7368167;19;20036;-77
2023/01/25 10:47:40;;;;;;;26.33;12.63;;;;;;;;;;7371216;19;20550;-79
2023/01/25 10:50:06;;;;;;;78.38;11.50;;;;;;;;;;7371005;19;20036;-78
2023/01/25 10:52:33;;;;;;;27.17;11.45;;;;;;;;;;7364239;19;20482;-77
2023/01/25 10:55:13;;;;;;;25.00;12.75;;;;;;;;;;7371517;19;20089;-77
2023/01/25 10:57:41;;;;;;;27.25;13.55;;;;;;;;;;7371759;19;20112;-78
2023/01/25 11:00:18;;;;;;;23.75;12.20;;;;;;;;;;7367152;19;20011;-77
2023/01/25 11:02:44;;;;;;;22.48;11.98;;;;;;;;;;7369835;19;20351;-78
2023/01/25 11:05:23;;;;;;;24.20;11.90;;;;;;;;;;7371142;19;20002;-77
2023/01/25 11:07:48;;;;;;;24.38;12.32;;;;;;;;;;7369235;19;20501;-78
2023/01/25 11:10:29;;;;;;;26.02;12.20;;;;;;;;;;7368416;19;20082;-78
2023/01/25 11:13:12;;;;;;;24.83;12.65;;;;;;;;;;7370013;19;20018;-79
2023/01/25 11:15:37;;;;;;;20.55;11.73;;;;;;;;;;7368418;19;20010;-77
2023/01/25 11:18:11;;;;;;;18.23;10.65;;;;;;;;;;7369849;19;20022;-78
2023/01/25 11:20:36;;;;;;;;;;;;;;;;;;7367457;19;20022;-77
2023/01/25 11:23:02;;;;;;;19.77;11.27;;;;;;;;;;7371185;19;19922;-77
2023/01/25 11:25:33;;;;;;;18.35;9.90;;;;;;;;;;7366982;19;20254;-77
2023/01/25 11:28:09;;;;;;;20.83;11.20;;;;;;;;;;7364399;19;20451;-77
2023/01/25 11:30:34;;;;;;;20.67;11.85;;;;;;;;;;7368368;19;20002;-77
2023/01/25 11:32:59;;;;;;;22.60;11.82;;;;;;;;;;7369667;19;20002;-78
2023/01/25 11:35:29;;;;;;;21.70;11.77;;;;;;;;;;7366351;19;20011;-77
2023/01/25 11:38:16;;;;;;;22.17;12.18;;;;;;;;;;7365721;19;20270;-78
2023/01/25 11:40:46;;;;;;;20.67;12.30;;;;;;;;;;7364684;19;20019;-77
2023/01/25 11:43:30;;;;;;;23.05;12.88;;;;;;;;;;7365395;19;20023;-78
2023/01/25 11:46:01;;;;;;;21.08;11.20;;;;;;;;;;7369106;19;20029;-77
2023/01/25 11:48:29;;;;;;;21.33;11.48;;;;;;;;;;7357947;19;20065;-77
2023/01/25 11:51:12;;;;;;;22.55;11.18;;;;;;;;;;7363390;19;20081;-77
2023/01/25 11:53:38;;;;;;;20.65;11.70;;;;;;;;;;7363638;19;20430;-77
2023/01/25 11:56:17;;;;;;;20.48;12.02;;;;;;;;;;7360947;19;20029;-77
2023/01/25 11:58:54;;;;;;;22.70;11.60;;;;;;;;;;7360089;19;20741;-77
2023/01/25 12:01:39;;;;;;;25.20;12.95;;;;;;;;;;7364873;19;20312;-78
2023/01/25 12:04:10;;;;;;;23.92;13.00;;;;;;;;;;7371707;19;20413;-77
2023/01/25 12:07:02;;;;;;;26.30;13.90;;;;;;;;;;7368152;19;20141;-77
2023/01/25 12:09:36;;;;;;;25.58;14.20;;;;;;;;;;7369997;19;20025;-78
2023/01/25 12:12:02;;;;;;;29.42;15.35;;;;;;;;;;7371538;19;20055;-77
2023/01/25 12:14:27;;;;;;;23.10;12.77;;;;;;;;;;7344967;19;20015;-77
2023/01/25 12:17:07;;;;;;;20.38;10.77;;;;;;;;;;7369177;19;20271;-77
2023/01/25 12:19:45;;;;;;;28.63;13.05;;;;;;;;;;7367407;19;20057;-76
2023/01/25 12:22:22;;;;;;;19.30;11.57;;;;;;;;;;7376187;19;20038;-78
2023/01/25 12:24:57;;;;;;;19.48;11.13;;;;;;;;;;7373992;19;20415;-78
2023/01/25 12:27:31;;;;;;;25.52;12.98;;;;;;;;;;7368713;19;20014;-77
2023/01/25 12:30:01;;;;;;;21.60;12.15;;;;;;;;;;7367615;19;20018;-77
2023/01/25 12:32:31;;;;;;;21.13;12.07;;;;;;;;;;7372369;19;20305;-77
2023/01/25 12:35:12;;;;;;;23.65;11.52;;;;;;;;;;7375299;19;20019;-76
2023/01/25 12:37:39;;;;;;;24.90;11.85;;;;;;;;;;7367445;19;20396;-79
2023/01/25 12:40:10;;;;;;;25.35;13.20;;;;;;;;;;7359185;19;20030;-76
2023/01/25 12:42:38;;;;;;;24.98;13.70;;;;;;;;;;7358597;19;20122;-77
2023/01/25 12:45:08;;;;;;;29.40;13.70;;;;;;;;;;7364694;19;20439;-77
2023/01/25 12:47:39;;;;;;;23.70;12.45;;;;;;;;;;7370912;19;20094;-76
2023/01/25 12:50:19;;;;;;;22.67;12.60;;;;;;;;;;7371869;19;20025;-76
2023/01/25 12:52:50;;;;;;;26.05;13.13;;;;;;;;;;7370722;19;20007;-77
2023/01/25 12:55:16;;;;;;;26.52;14.57;;;;;;;;;;7368967;19;20011;-77
2023/01/25 12:57:44;;;;;;;24.08;13.82;;;;;;;;;;7370905;19;20045;-76
2023/01/25 13:00:09;;;;;;;24.70;13.98;;;;;;;;;;7369315;19;20459;-76
2023/01/25 13:02:41;;;;;;;28.08;14.45;;;;;;;;;;7370631;19;20074;-76
2023/01/25 13:05:15;;;;;;;24.52;13.98;;;;;;;;;;7371509;19;20073;-76
2023/01/25 13:07:53;;;;;;;28.13;13.55;;;;;;;;;;7372390;19;20022;-76
2023/01/25 13:10:22;;;;;;;29.92;14.43;;;;;;;;;;7363079;19;20320;-76
2023/01/25 13:12:50;;;;;;;22.60;13.20;;;;;;;;;;7371113;19;20110;-79
2023/01/25 13:15:34;;;;;;;24.27;13.10;;;;;;;;;;7364306;19;20086;-79
2023/01/25 13:17:59;;;;;;;25.25;12.95;;;;;;;;;;7370222;19;20022;-76
2023/01/25 13:20:40;;;;;;;26.98;14.90;;;;;;;;;;7361684;19;20113;-76
2023/01/25 13:23:25;;;;;;;33.22;14.95;;;;;;;;;;7371038;19;20006;-76
2023/01/25 13:25:50;;;;;;;27.30;15.15;;;;;;;;;;7370698;19;19998;-76
2023/01/25 13:28:39;;;;;;;31.67;15.43;;;;;;;;;;7351972;19;20546;-76
2023/01/25 13:31:04;;;;;;;31.55;15.95;;;;;;;;;;7365702;19;20909;-76
2023/01/25 13:33:31;;;;;;;31.35;16.50;;;;;;;;;;7359754;19;20050;-77
2023/01/25 13:35:56;;;;;;;26.23;15.30;;;;;;;;;;7366104;19;20037;-76
2023/01/25 13:38:24;;;;;;;31.20;15.82;;;;;;;;;;7360840;19;20402;-77
2023/01/25 13:41:02;;;;;;;29.65;15.23;;;;;;;;;;7368795;19;19999;-76
2023/01/25 13:43:27;;;;;;;28.55;15.15;;;;;;;;;;7360327;19;20284;-77
2023/01/25 13:45:52;;;;;;;30.20;16.20;;;;;;;;;;7364284;19;20014;-76
2023/01/25 13:48:20;;;;;;;30.63;15.15;;;;;;;;;;7366640;19;20076;-76
2023/01/25 13:50:45;;;;;;;29.60;16.20;;;;;;;;;;7369129;19;20146;-76
2023/01/25 13:53:13;;;;;;;34.30;17.58;;;;;;;;;;7354727;19;20137;-76
2023/01/25 13:55:40;;;;;;;38.92;18.17;;;;;;;;;;7353720;19;19999;-76
2023/01/25 13:58:19;;;;;;;35.33;18.13;;;;;;;;;;7360258;19;20554;-76
2023/01/25 14:00:54;;;;;;;42.83;17.73;;;;;;;;;;7366903;19;20121;-76
2023/01/25 14:03:23;;;;;;;32.90;15.63;;;;;;;;;;7369282;19;20017;-76
2023/01/25 14:05:49;;;;;;;30.05;16.55;;;;;;;;;;7344229;19;20010;-76
2023/01/25 14:08:16;;;;;;;34.85;16.27;;;;;;;;;;7366689;19;19998;-76
2023/01/25 14:10:42;;;;;;;33.60;15.38;;;;;;;;;;7365904;19;20063;-76
2023/01/25 14:13:12;;;;;;;28.95;15.50;;;;;;;;;;7365406;19;20098;-76
2023/01/25 14:15:37;;;;;;;30.98;15.40;;;;;;;;;;7364906;19;20342;-76
2023/01/25 14:18:13;;;;;;;39.95;18.67;;;;;;;;;;7370664;19;20002;-76
2023/01/25 14:20:39;;;;;;;33.67;17.77;;;;;;;;;;7354989;19;20091;-77
2023/01/25 14:23:05;;;;;;;44.30;19.35;;;;;;;;;;7366534;19;20576;-76
2023/01/25 14:25:31;;;;;;;33.80;17.38;;;;;;;;;;7364661;19;20011;-76